createdAt,value
2023-05-04T00:00:11.463Z,1013.00
2023-05-04T00:01:11.429Z,1012.99
2023-05-04T00:02:11.411Z,1012.98
2023-05-04T00:03:11.513Z,1012.96
2023-05-04T00:04:11.496Z,1012.95
2023-05-04T00:05:11.347Z,1012.95
2023-05-04T00:06:11.375Z,1012.93
2023-05-04T00:07:11.365Z,1012.92
2023-05-04T00:08:11.325Z,1012.91
2023-05-04T00:09:11.319Z,1012.91
2023-05-04T00:10:11.327Z,1012.91
2023-05-04T00:11:11.320Z,1012.89
2023-05-04T00:12:11.950Z,1012.88
2023-05-04T00:13:11.349Z,1012.86
2023-05-04T00:14:11.316Z,1012.86
2023-05-04T00:15:11.289Z,1012.84
2023-05-04T00:16:11.364Z,1012.83
2023-05-04T00:17:11.247Z,1012.83
2023-05-04T00:18:11.217Z,1012.82
2023-05-04T00:19:11.273Z,1012.82
2023-05-04T00:20:11.278Z,1012.81
2023-05-04T00:21:11.245Z,1012.81
2023-05-04T00:22:11.170Z,1012.81
2023-05-04T00:23:11.170Z,1012.80
2023-05-04T00:24:11.145Z,1012.80
2023-05-04T00:25:11.146Z,1012.81
2023-05-04T00:26:11.130Z,1012.82
2023-05-04T00:27:11.147Z,1012.83
2023-05-04T00:28:11.177Z,1012.83
2023-05-04T00:29:11.150Z,1012.83
2023-05-04T00:30:11.146Z,1012.83
2023-05-04T00:31:11.149Z,1012.83
2023-05-04T00:32:11.060Z,1012.83
2023-05-04T00:33:11.114Z,1012.82
2023-05-04T00:34:11.077Z,1012.82
2023-05-04T00:35:11.046Z,1012.81
2023-05-04T00:36:11.020Z,1012.80
2023-05-04T00:37:11.029Z,1012.79
2023-05-04T00:38:11.031Z,1012.78
2023-05-04T00:39:11.022Z,1012.76
2023-05-04T00:40:10.996Z,1012.73
2023-05-04T00:41:10.972Z,1012.71
2023-05-04T00:42:10.963Z,1012.69
2023-05-04T00:43:11.007Z,1012.68
2023-05-04T00:44:11.033Z,1012.66
2023-05-04T00:45:11.274Z,1012.65
2023-05-04T00:46:10.902Z,1012.65
2023-05-04T00:47:10.955Z,1012.64
2023-05-04T00:48:10.981Z,1012.64
2023-05-04T00:49:10.886Z,1012.65
2023-05-04T00:50:10.916Z,1012.65
2023-05-04T00:51:10.873Z,1012.66
2023-05-04T00:52:10.969Z,1012.67
2023-05-04T00:53:10.847Z,1012.68
2023-05-04T00:54:10.865Z,1012.67
2023-05-04T00:55:10.855Z,1012.67
2023-05-04T00:56:10.834Z,1012.66
2023-05-04T00:57:10.874Z,1012.64
2023-05-04T00:58:10.803Z,1012.62
2023-05-04T00:59:10.790Z,1012.61
2023-05-04T01:00:10.795Z,1012.61
2023-05-04T01:01:10.829Z,1012.61
2023-05-04T01:02:10.771Z,1012.59
2023-05-04T01:03:10.879Z,1012.59
2023-05-04T01:04:11.057Z,1012.59
2023-05-04T01:05:10.743Z,1012.60
2023-05-04T01:06:10.737Z,1012.59
2023-05-04T01:07:10.845Z,1012.58
2023-05-04T01:08:10.975Z,1012.56
2023-05-04T01:09:10.670Z,1012.54
2023-05-04T01:10:10.742Z,1012.53
2023-05-04T01:11:10.676Z,1012.52
2023-05-04T01:12:10.660Z,1012.52
2023-05-04T01:13:10.780Z,1012.53
2023-05-04T01:14:10.693Z,1012.54
2023-05-04T01:15:10.621Z,1012.54
2023-05-04T01:16:10.650Z,1012.52
2023-05-04T01:17:10.671Z,1012.50
2023-05-04T01:18:10.616Z,1012.48
2023-05-04T01:19:11.337Z,1012.47
2023-05-04T01:20:10.568Z,1012.47
2023-05-04T01:21:10.562Z,1012.47
2023-05-04T01:22:10.566Z,1012.46
2023-05-04T01:23:10.546Z,1012.45
2023-05-04T01:24:10.548Z,1012.45
2023-05-04T01:25:10.558Z,1012.44
2023-05-04T01:26:10.524Z,1012.44
2023-05-04T01:27:10.608Z,1012.43
2023-05-04T01:28:10.474Z,1012.42
2023-05-04T01:29:10.510Z,1012.42
2023-05-04T01:30:10.488Z,1012.42
2023-05-04T01:31:10.550Z,1012.42
2023-05-04T01:32:10.434Z,1012.44
2023-05-04T01:33:10.505Z,1012.44
2023-05-04T01:34:10.641Z,1012.44
2023-05-04T01:35:10.416Z,1012.44
2023-05-04T01:36:10.395Z,1012.45
2023-05-04T01:37:10.400Z,1012.46
2023-05-04T01:38:10.429Z,1012.46
2023-05-04T01:39:10.406Z,1012.46
2023-05-04T01:40:10.387Z,1012.45
2023-05-04T01:41:10.368Z,1012.45
2023-05-04T01:42:10.331Z,1012.45
2023-05-04T01:43:10.984Z,1012.45
2023-05-04T01:44:10.305Z,1012.45
2023-05-04T01:45:10.346Z,1012.45
2023-05-04T01:46:10.335Z,1012.45
2023-05-04T01:47:10.297Z,1012.45
2023-05-04T01:48:10.427Z,1012.45
2023-05-04T01:49:10.316Z,1012.45
2023-05-04T01:50:10.289Z,1012.45
2023-05-04T01:51:10.245Z,1012.45
2023-05-04T01:52:10.295Z,1012.43
2023-05-04T01:53:10.246Z,1012.44
2023-05-04T01:54:10.238Z,1012.44
2023-05-04T01:55:10.252Z,1012.45
2023-05-04T01:56:10.887Z,1012.45
2023-05-04T01:57:10.190Z,1012.45
2023-05-04T01:58:10.195Z,1012.46
2023-05-04T01:59:10.167Z,1012.46
2023-05-04T02:00:10.183Z,1012.46
2023-05-04T02:01:10.192Z,1012.46
2023-05-04T02:02:10.156Z,1012.45
2023-05-04T02:03:10.234Z,1012.43
2023-05-04T02:04:10.271Z,1012.41
2023-05-04T02:05:10.142Z,1012.40
2023-05-04T02:06:10.091Z,1012.39
2023-05-04T02:07:10.093Z,1012.37
2023-05-04T02:08:10.097Z,1012.37
2023-05-04T02:09:10.179Z,1012.37
2023-05-04T02:10:10.068Z,1012.37
2023-05-04T02:11:10.069Z,1012.37
2023-05-04T02:12:10.032Z,1012.38
2023-05-04T02:13:10.033Z,1012.37
2023-05-04T02:14:10.050Z,1012.38
2023-05-04T02:15:10.027Z,1012.39
2023-05-04T02:16:10.038Z,1012.40
2023-05-04T02:17:09.975Z,1012.41
2023-05-04T02:18:10.004Z,1012.41
2023-05-04T02:19:09.965Z,1012.40
2023-05-04T02:20:09.947Z,1012.39
2023-05-04T02:21:09.960Z,1012.40
2023-05-04T02:22:09.962Z,1012.39
2023-05-04T02:23:09.917Z,1012.37
2023-05-04T02:24:09.898Z,1012.36
2023-05-04T02:25:09.925Z,1012.35
2023-05-04T02:26:09.926Z,1012.35
2023-05-04T02:27:09.937Z,1012.35
2023-05-04T02:28:09.854Z,1012.36
2023-05-04T02:29:09.867Z,1012.37
2023-05-04T02:30:09.872Z,1012.36
2023-05-04T02:31:09.881Z,1012.37
2023-05-04T02:32:09.811Z,1012.37
2023-05-04T02:33:09.819Z,1012.38
2023-05-04T02:34:09.785Z,1012.37
2023-05-04T02:35:09.774Z,1012.37
2023-05-04T02:36:09.820Z,1012.34
2023-05-04T02:37:09.809Z,1012.34
2023-05-04T02:38:09.765Z,1012.32
2023-05-04T02:39:09.776Z,1012.31
2023-05-04T02:40:09.791Z,1012.28
2023-05-04T02:41:09.731Z,1012.28
2023-05-04T02:42:09.729Z,1012.28
2023-05-04T02:43:09.702Z,1012.30
2023-05-04T02:44:09.697Z,1012.29
2023-05-04T02:45:09.687Z,1012.31
2023-05-04T02:46:09.716Z,1012.30
2023-05-04T02:47:09.699Z,1012.30
2023-05-04T02:48:09.684Z,1012.29
2023-05-04T02:49:09.666Z,1012.30
2023-05-04T02:50:09.640Z,1012.31
2023-05-04T02:51:09.674Z,1012.31
2023-05-04T02:52:09.641Z,1012.32
2023-05-04T02:53:09.640Z,1012.29
2023-05-04T02:54:09.604Z,1012.28
2023-05-04T02:55:09.624Z,1012.27
2023-05-04T02:56:09.606Z,1012.24
2023-05-04T02:57:09.588Z,1012.23
2023-05-04T02:58:09.588Z,1012.20
2023-05-04T02:59:09.583Z,1012.21
2023-05-04T03:00:09.513Z,1012.21
2023-05-04T03:01:09.687Z,1012.22
2023-05-04T03:02:09.533Z,1012.21
2023-05-04T03:03:09.511Z,1012.24
2023-05-04T03:04:09.559Z,1012.24
2023-05-04T03:05:09.483Z,1012.23
2023-05-04T03:06:09.520Z,1012.23
2023-05-04T03:07:09.478Z,1012.21
2023-05-04T03:08:09.497Z,1012.20
2023-05-04T03:09:09.457Z,1012.21
2023-05-04T03:10:09.512Z,1012.19
2023-05-04T03:11:09.508Z,1012.18
2023-05-04T03:12:09.429Z,1012.17
2023-05-04T03:13:09.427Z,1012.15
2023-05-04T03:14:09.446Z,1012.15
2023-05-04T03:15:09.350Z,1012.14
2023-05-04T03:16:09.436Z,1012.14
2023-05-04T03:17:09.403Z,1012.17
2023-05-04T03:18:09.573Z,1012.16
2023-05-04T03:19:09.463Z,1012.17
2023-05-04T03:20:09.441Z,1012.17
2023-05-04T03:21:09.366Z,1012.16
2023-05-04T03:22:09.284Z,1012.17
2023-05-04T03:23:09.281Z,1012.14
2023-05-04T03:24:09.241Z,1012.13
2023-05-04T03:25:09.243Z,1012.14
2023-05-04T03:26:09.204Z,1012.16
2023-05-04T03:27:09.268Z,1012.12
2023-05-04T03:28:09.239Z,1012.11
2023-05-04T03:29:09.254Z,1012.09
2023-05-04T03:30:09.235Z,1012.11
2023-05-04T03:31:09.140Z,1012.07
2023-05-04T03:32:09.179Z,1012.08
2023-05-04T03:33:09.192Z,1012.09
2023-05-04T03:34:09.176Z,1012.07
2023-05-04T03:35:09.128Z,1012.06
2023-05-04T03:36:09.171Z,1012.06
2023-05-04T03:37:09.088Z,1012.07
2023-05-04T03:38:09.130Z,1012.06
2023-05-04T03:39:09.159Z,1012.07
2023-05-04T03:40:09.085Z,1012.06
2023-05-04T03:41:09.111Z,1012.03
2023-05-04T03:42:09.072Z,1012.06
2023-05-04T03:43:09.065Z,1012.06
2023-05-04T03:44:09.027Z,1012.04
2023-05-04T03:45:10.000Z,1012.09
2023-05-04T03:46:09.046Z,1012.06
2023-05-04T03:47:09.018Z,1012.05
2023-05-04T03:48:09.005Z,1012.06
2023-05-04T03:49:08.966Z,1012.05
2023-05-04T03:50:08.965Z,1012.05
2023-05-04T03:51:08.975Z,1012.10
2023-05-04T03:52:09.052Z,1012.07
2023-05-04T03:53:08.996Z,1012.10
2023-05-04T03:54:08.938Z,1012.12
2023-05-04T03:55:08.902Z,1012.10
2023-05-04T03:56:08.901Z,1012.12
2023-05-04T03:57:09.918Z,1012.12
2023-05-04T03:58:08.967Z,1012.12
2023-05-04T03:59:08.860Z,1012.09
2023-05-04T04:00:08.890Z,1012.10
2023-05-04T04:01:08.843Z,1012.10
2023-05-04T04:02:08.851Z,1012.10
2023-05-04T04:03:09.122Z,1012.11
2023-05-04T04:04:09.026Z,1012.08
2023-05-04T04:05:08.834Z,1012.12
2023-05-04T04:06:08.832Z,1012.09
2023-05-04T04:07:08.879Z,1012.10
2023-05-04T04:08:08.890Z,1012.12
2023-05-04T04:09:08.812Z,1012.11
2023-05-04T04:10:08.808Z,1012.10
2023-05-04T04:11:08.799Z,1012.10
2023-05-04T04:12:09.403Z,1012.12
2023-05-04T04:13:08.766Z,1012.13
2023-05-04T04:14:08.740Z,1012.14
2023-05-04T04:15:08.727Z,1012.14
2023-05-04T04:16:08.724Z,1012.16
2023-05-04T04:17:08.699Z,1012.17
2023-05-04T04:18:08.723Z,1012.16
2023-05-04T04:19:08.655Z,1012.15
2023-05-04T04:20:08.633Z,1012.13
2023-05-04T04:21:08.673Z,1012.14
2023-05-04T04:22:08.672Z,1012.13
2023-05-04T04:23:08.662Z,1012.13
2023-05-04T04:24:08.622Z,1012.13
2023-05-04T04:25:08.608Z,1012.14
2023-05-04T04:26:08.890Z,1012.14
2023-05-04T04:27:08.610Z,1012.14
2023-05-04T04:28:08.784Z,1012.11
2023-05-04T04:29:08.671Z,1012.12
2023-05-04T04:30:08.725Z,1012.14
2023-05-04T04:31:09.086Z,1012.12
2023-05-04T04:32:08.640Z,1012.13
2023-05-04T04:33:08.826Z,1012.14
2023-05-04T04:34:08.879Z,1012.14
2023-05-04T04:35:08.532Z,1012.13
2023-05-04T04:36:09.185Z,1012.13
2023-05-04T04:37:08.593Z,1012.13
2023-05-04T04:38:08.843Z,1012.15
2023-05-04T04:39:08.630Z,1012.15
2023-05-04T04:40:08.770Z,1012.14
2023-05-04T04:41:08.673Z,1012.14
2023-05-04T04:42:08.517Z,1012.15
2023-05-04T04:43:08.520Z,1012.15
2023-05-04T04:44:08.599Z,1012.17
2023-05-04T04:45:08.472Z,1012.18
2023-05-04T04:46:08.522Z,1012.20
2023-05-04T04:47:08.713Z,1012.21
2023-05-04T04:48:08.502Z,1012.22
2023-05-04T04:49:08.677Z,1012.23
2023-05-04T04:50:08.544Z,1012.25
2023-05-04T04:51:08.702Z,1012.25
2023-05-04T04:52:09.128Z,1012.26
2023-05-04T04:53:08.681Z,1012.27
2023-05-04T04:54:08.452Z,1012.27
2023-05-04T04:55:08.629Z,1012.28
2023-05-04T04:56:08.677Z,1012.28
2023-05-04T04:57:08.295Z,1012.27
2023-05-04T04:58:08.472Z,1012.29
2023-05-04T04:59:08.289Z,1012.30
2023-05-04T05:00:08.308Z,1012.30
2023-05-04T05:01:08.727Z,1012.30
2023-05-04T05:02:08.337Z,1012.30
2023-05-04T05:03:08.585Z,1012.28
2023-05-04T05:04:08.494Z,1012.27
2023-05-04T05:05:08.943Z,1012.26
2023-05-04T05:06:08.438Z,1012.25
2023-05-04T05:07:08.697Z,1012.25
2023-05-04T05:08:09.189Z,1012.24
2023-05-04T05:09:08.765Z,1012.23
2023-05-04T05:10:08.677Z,1012.23
2023-05-04T05:11:08.312Z,1012.22
2023-05-04T05:12:08.228Z,1012.20
2023-05-04T05:13:08.246Z,1012.20
2023-05-04T05:14:08.237Z,1012.20
2023-05-04T05:15:08.234Z,1012.19
2023-05-04T05:16:08.745Z,1012.18
2023-05-04T05:17:08.656Z,1012.18
2023-05-04T05:18:08.076Z,1012.21
2023-05-04T05:19:08.247Z,1012.21
2023-05-04T05:20:08.125Z,1012.22
2023-05-04T05:21:08.090Z,1012.24
2023-05-04T05:22:08.305Z,1012.25
2023-05-04T05:23:08.066Z,1012.26
2023-05-04T05:24:08.057Z,1012.26
2023-05-04T05:25:08.021Z,1012.27
2023-05-04T05:26:08.434Z,1012.27
2023-05-04T05:27:08.008Z,1012.29
2023-05-04T05:28:07.978Z,1012.31
2023-05-04T05:29:07.939Z,1012.32
2023-05-04T05:30:08.071Z,1012.33
2023-05-04T05:31:07.962Z,1012.33
2023-05-04T05:32:07.943Z,1012.34
2023-05-04T05:33:07.941Z,1012.36
2023-05-04T05:34:08.030Z,1012.35
2023-05-04T05:35:07.916Z,1012.35
2023-05-04T05:36:07.922Z,1012.35
2023-05-04T05:37:07.905Z,1012.34
2023-05-04T05:38:07.880Z,1012.35
2023-05-04T05:39:07.861Z,1012.32
2023-05-04T05:40:08.077Z,1012.33
2023-05-04T05:41:07.820Z,1012.30
2023-05-04T05:42:08.009Z,1012.29
2023-05-04T05:43:07.809Z,1012.29
2023-05-04T05:44:07.822Z,1012.27
2023-05-04T05:45:07.738Z,1012.29
2023-05-04T05:46:07.862Z,1012.27
2023-05-04T05:47:07.879Z,1012.27
2023-05-04T05:48:07.776Z,1012.27
2023-05-04T05:49:07.715Z,1012.27
2023-05-04T05:50:08.007Z,1012.27
2023-05-04T05:51:07.839Z,1012.28
2023-05-04T05:52:08.600Z,1012.27
2023-05-04T05:53:07.791Z,1012.27
2023-05-04T05:54:07.793Z,1012.27
2023-05-04T05:55:07.687Z,1012.27
2023-05-04T05:56:07.704Z,1012.29
2023-05-04T05:57:07.672Z,1012.29
2023-05-04T05:58:07.622Z,1012.27
2023-05-04T05:59:07.637Z,1012.27
2023-05-04T06:00:07.822Z,1012.27
2023-05-04T06:01:07.632Z,1012.30
2023-05-04T06:02:07.733Z,1012.28
2023-05-04T06:03:07.716Z,1012.28
2023-05-04T06:04:07.792Z,1012.31
2023-05-04T06:05:07.656Z,1012.32
2023-05-04T06:06:07.613Z,1012.33
2023-05-04T06:07:08.326Z,1012.32
2023-05-04T06:08:07.697Z,1012.34
2023-05-04T06:09:07.534Z,1012.32
2023-05-04T06:10:07.937Z,1012.32
2023-05-04T06:11:07.539Z,1012.30
2023-05-04T06:12:07.583Z,1012.29
2023-05-04T06:13:07.608Z,1012.28
2023-05-04T06:14:07.515Z,1012.26
2023-05-04T06:15:07.628Z,1012.23
2023-05-04T06:16:07.550Z,1012.16
2023-05-04T06:17:07.586Z,1012.12
2023-05-04T06:18:07.771Z,1012.12
2023-05-04T06:19:07.446Z,1012.17
2023-05-04T06:20:08.243Z,1012.15
2023-05-04T06:21:07.440Z,1012.12
2023-05-04T06:22:07.475Z,1012.17
2023-05-04T06:23:07.413Z,1012.18
2023-05-04T06:24:07.354Z,1012.19
2023-05-04T06:25:08.328Z,1012.21
2023-05-04T06:26:07.460Z,1012.21
2023-05-04T06:27:07.417Z,1012.21
2023-05-04T06:28:07.336Z,1012.17
2023-05-04T06:29:07.346Z,1012.22
2023-05-04T06:30:07.670Z,1012.19
2023-05-04T06:31:08.454Z,1012.21
2023-05-04T06:32:07.343Z,1012.21
2023-05-04T06:33:07.321Z,1012.23
2023-05-04T06:34:07.287Z,1012.25
2023-05-04T06:35:07.307Z,1012.21
2023-05-04T06:36:07.277Z,1012.22
2023-05-04T06:37:07.577Z,1012.20
2023-05-04T06:38:07.279Z,1012.20
2023-05-04T06:39:07.371Z,1012.19
2023-05-04T06:40:07.368Z,1012.19
2023-05-04T06:41:07.227Z,1012.19
2023-05-04T06:42:07.273Z,1012.19
2023-05-04T06:43:07.228Z,1012.19
2023-05-04T06:44:07.170Z,1012.23
2023-05-04T06:45:07.137Z,1012.22
2023-05-04T06:46:08.034Z,1012.17
2023-05-04T06:47:07.390Z,1012.20
2023-05-04T06:48:07.266Z,1012.22
2023-05-04T06:49:07.480Z,1012.23
2023-05-04T06:50:09.221Z,1012.22
2023-05-04T06:51:07.272Z,1012.22
2023-05-04T06:52:07.114Z,1012.25
2023-05-04T06:53:07.368Z,1012.21
2023-05-04T06:54:07.113Z,1012.23
2023-05-04T06:55:07.152Z,1012.25
2023-05-04T06:56:07.042Z,1012.23
2023-05-04T06:57:07.111Z,1012.25
2023-05-04T06:58:07.048Z,1012.24
2023-05-04T06:59:06.982Z,1012.20
2023-05-04T07:00:07.051Z,1012.21
2023-05-04T07:01:07.038Z,1012.23
2023-05-04T07:02:06.947Z,1012.15
2023-05-04T07:03:07.208Z,1012.16
2023-05-04T07:04:07.101Z,1012.17
2023-05-04T07:05:06.926Z,1012.19
2023-05-04T07:06:06.956Z,1012.18
2023-05-04T07:07:07.557Z,1012.19
2023-05-04T07:08:06.928Z,1012.18
2023-05-04T07:09:07.238Z,1012.17
2023-05-04T07:10:07.103Z,1012.20
2023-05-04T07:11:07.076Z,1012.19
2023-05-04T07:12:06.959Z,1012.18
2023-05-04T07:13:07.128Z,1012.16
2023-05-04T07:14:08.526Z,1012.19
2023-05-04T07:15:10.698Z,1012.19
2023-05-04T07:16:06.928Z,1012.17
2023-05-04T07:17:06.869Z,1012.23
2023-05-04T07:18:06.886Z,1012.21
2023-05-04T07:19:07.067Z,1012.22
2023-05-04T07:20:06.998Z,1012.21
2023-05-04T07:21:25.937Z,1012.23
2023-05-04T07:22:06.835Z,1012.21
2023-05-04T07:23:06.727Z,1012.21
2023-05-04T07:24:06.762Z,1012.17
2023-05-04T07:25:06.817Z,1012.16
2023-05-04T07:26:06.755Z,1012.14
2023-05-04T07:27:06.711Z,1012.13
2023-05-04T07:28:06.699Z,1012.14
2023-05-04T07:29:06.703Z,1012.13
2023-05-04T07:30:06.915Z,1012.14
2023-05-04T07:31:06.656Z,1012.14
2023-05-04T07:32:06.742Z,1012.12
2023-05-04T07:33:06.720Z,1012.14
2023-05-04T07:34:06.659Z,1012.11
2023-05-04T07:35:06.661Z,1012.13
2023-05-04T07:36:06.612Z,1012.10
2023-05-04T07:37:07.693Z,1012.11
2023-05-04T07:38:06.658Z,1012.09
2023-05-04T07:39:06.687Z,1012.09
2023-05-04T07:40:06.889Z,1012.06
2023-05-04T07:41:06.721Z,1012.05
2023-05-04T07:42:06.745Z,1012.05
2023-05-04T07:43:06.637Z,1012.02
2023-05-04T07:44:06.546Z,1012.03
2023-05-04T07:45:06.506Z,1011.98
2023-05-04T07:46:06.549Z,1011.94
2023-05-04T07:47:06.502Z,1011.93
2023-05-04T07:48:06.547Z,1011.96
2023-05-04T07:49:06.492Z,1011.93
2023-05-04T07:50:06.683Z,1011.94
2023-05-04T07:51:06.607Z,1011.93
2023-05-04T07:52:06.547Z,1011.96
2023-05-04T07:53:06.504Z,1011.93
2023-05-04T07:54:06.492Z,1011.95
2023-05-04T07:55:06.582Z,1011.96
2023-05-04T07:56:06.590Z,1011.97
2023-05-04T07:57:06.428Z,1011.96
2023-05-04T07:58:09.108Z,1011.97
2023-05-04T07:59:06.422Z,1011.96
2023-05-04T08:00:06.612Z,1011.99
2023-05-04T08:01:06.367Z,1011.93
2023-05-04T08:02:07.151Z,1011.95
2023-05-04T08:03:06.533Z,1011.95
2023-05-04T08:04:07.968Z,1011.92
2023-05-04T08:05:06.388Z,1011.92
2023-05-04T08:06:06.351Z,1011.91
2023-05-04T08:07:06.674Z,1011.92
2023-05-04T08:08:06.365Z,1011.90
2023-05-04T08:09:06.341Z,1011.88
2023-05-04T08:10:06.454Z,1011.88
2023-05-04T08:11:19.487Z,1011.87
2023-05-04T08:12:06.328Z,1011.86
2023-05-04T08:13:06.428Z,1011.84
2023-05-04T08:14:06.784Z,1011.84
2023-05-04T08:15:06.503Z,1011.86
2023-05-04T08:16:06.301Z,1011.82
2023-05-04T08:17:06.735Z,1011.80
2023-05-04T08:18:06.462Z,1011.78
2023-05-04T08:19:06.430Z,1011.78
2023-05-04T08:20:06.259Z,1011.74
2023-05-04T08:21:06.296Z,1011.72
2023-05-04T08:22:07.524Z,1011.73
2023-05-04T08:23:06.456Z,1011.71
2023-05-04T08:24:07.267Z,1011.70
2023-05-04T08:25:06.824Z,1011.71
2023-05-04T08:26:06.234Z,1011.71
2023-05-04T08:27:08.759Z,1011.69
2023-05-04T08:28:06.497Z,1011.67
2023-05-04T08:29:06.770Z,1011.64
2023-05-04T08:30:06.400Z,1011.64
2023-05-04T08:31:06.613Z,1011.60
2023-05-04T08:32:06.276Z,1011.59
2023-05-04T08:33:06.343Z,1011.58
2023-05-04T08:34:06.384Z,1011.56
2023-05-04T08:35:06.386Z,1011.59
2023-05-04T08:36:06.261Z,1011.52
2023-05-04T08:37:06.330Z,1011.53
2023-05-04T08:38:06.494Z,1011.55
2023-05-04T08:39:06.189Z,1011.53
2023-05-04T08:40:07.778Z,1011.53
2023-05-04T08:41:06.146Z,1011.51
2023-05-04T08:42:06.021Z,1011.51
2023-05-04T08:43:06.237Z,1011.51
2023-05-04T08:44:06.534Z,1011.53
2023-05-04T08:45:06.638Z,1011.53
2023-05-04T08:46:06.106Z,1011.51
2023-05-04T08:47:06.124Z,1011.50
2023-05-04T08:48:06.055Z,1011.51
2023-05-04T08:49:06.069Z,1011.48
2023-05-04T08:50:06.004Z,1011.45
2023-05-04T08:51:06.231Z,1011.43
2023-05-04T08:52:06.062Z,1011.44
2023-05-04T08:53:06.162Z,1011.43
2023-05-04T08:54:07.439Z,1011.41
2023-05-04T08:55:06.306Z,1011.42
2023-05-04T08:56:06.163Z,1011.43
2023-05-04T08:57:06.069Z,1011.41
2023-05-04T08:58:06.216Z,1011.37
2023-05-04T08:59:05.886Z,1011.40
2023-05-04T09:00:05.872Z,1011.37
2023-05-04T09:01:06.186Z,1011.36
2023-05-04T09:02:05.984Z,1011.36
2023-05-04T09:03:05.867Z,1011.35
2023-05-04T09:04:05.811Z,1011.35
2023-05-04T09:05:06.262Z,1011.36
2023-05-04T09:06:05.831Z,1011.36
2023-05-04T09:07:05.882Z,1011.35
2023-05-04T09:08:05.811Z,1011.32
2023-05-04T09:09:05.704Z,1011.31
2023-05-04T09:10:05.712Z,1011.32
2023-05-04T09:11:05.723Z,1011.33
2023-05-04T09:12:05.662Z,1011.31
2023-05-04T09:13:05.654Z,1011.32
2023-05-04T09:14:05.829Z,1011.32
2023-05-04T09:15:06.060Z,1011.30
2023-05-04T09:16:05.694Z,1011.29
2023-05-04T09:17:06.001Z,1011.29
2023-05-04T09:18:05.862Z,1011.26
2023-05-04T09:19:05.821Z,1011.25
2023-05-04T09:20:05.973Z,1011.27
2023-05-04T09:21:06.259Z,1011.31
2023-05-04T09:22:05.577Z,1011.28
2023-05-04T09:23:05.558Z,1011.29
2023-05-04T09:24:05.617Z,1011.28
2023-05-04T09:25:05.974Z,1011.26
2023-05-04T09:26:05.533Z,1011.26
2023-05-04T09:27:05.571Z,1011.26
2023-05-04T09:28:05.649Z,1011.24
2023-05-04T09:29:05.587Z,1011.26
2023-05-04T09:30:05.841Z,1011.26
2023-05-04T09:31:05.537Z,1011.24
2023-05-04T09:32:05.457Z,1011.24
2023-05-04T09:33:05.515Z,1011.22
2023-05-04T09:34:05.404Z,1011.21
2023-05-04T09:35:10.740Z,1011.20
2023-05-04T09:36:05.453Z,1011.20
2023-05-04T09:37:05.402Z,1011.20
2023-05-04T09:38:05.356Z,1011.16
2023-05-04T09:39:05.411Z,1011.19
2023-05-04T09:40:05.346Z,1011.17
2023-05-04T09:41:05.359Z,1011.17
2023-05-04T09:42:05.355Z,1011.15
2023-05-04T09:43:05.354Z,1011.13
2023-05-04T09:44:05.506Z,1011.14
2023-05-04T09:45:05.701Z,1011.12
2023-05-04T09:46:05.905Z,1011.10
2023-05-04T09:47:05.554Z,1011.09
2023-05-04T09:48:05.448Z,1011.09
2023-05-04T09:49:05.292Z,1011.07
2023-05-04T09:50:05.352Z,1011.06
2023-05-04T09:51:05.334Z,1011.08
2023-05-04T09:52:05.588Z,1011.07
2023-05-04T09:53:05.357Z,1011.10
2023-05-04T09:54:05.315Z,1011.10
2023-05-04T09:55:05.595Z,1011.09
2023-05-04T09:56:08.017Z,1011.10
2023-05-04T09:57:05.356Z,1011.07
2023-05-04T09:58:05.365Z,1011.04
2023-05-04T09:59:05.268Z,1011.03
2023-05-04T10:00:05.273Z,1011.01
2023-05-04T10:01:05.170Z,1010.99
2023-05-04T10:02:14.582Z,1010.99
2023-05-04T10:03:05.204Z,1011.00
2023-05-04T10:04:05.193Z,1010.97
2023-05-04T10:05:05.257Z,1010.95
2023-05-04T10:06:05.066Z,1010.92
2023-05-04T10:07:05.427Z,1010.92
2023-05-04T10:08:05.169Z,1010.89
2023-05-04T10:09:05.118Z,1010.89
2023-05-04T10:10:05.197Z,1010.90
2023-05-04T10:11:05.505Z,1010.84
2023-05-04T10:12:05.103Z,1010.84
2023-05-04T10:13:05.142Z,1010.80
2023-05-04T10:14:05.003Z,1010.81
2023-05-04T10:15:05.094Z,1010.80
2023-05-04T10:16:05.047Z,1010.80
2023-05-04T10:17:05.320Z,1010.78
2023-05-04T10:18:04.931Z,1010.80
2023-05-04T10:19:05.155Z,1010.76
2023-05-04T10:20:04.998Z,1010.72
2023-05-04T10:21:07.528Z,1010.73
2023-05-04T10:22:04.890Z,1010.72
2023-05-04T10:23:06.751Z,1010.70
2023-05-04T10:24:04.941Z,1010.70
2023-05-04T10:25:05.039Z,1010.68
2023-05-04T10:26:04.939Z,1010.66
2023-05-04T10:27:04.904Z,1010.64
2023-05-04T10:28:04.878Z,1010.62
2023-05-04T10:29:04.919Z,1010.62
2023-05-04T10:30:04.836Z,1010.59
2023-05-04T10:31:04.925Z,1010.56
2023-05-04T10:32:05.042Z,1010.55
2023-05-04T10:33:04.903Z,1010.49
2023-05-04T10:34:05.094Z,1010.47
2023-05-04T10:35:04.974Z,1010.47
2023-05-04T10:36:04.824Z,1010.44
2023-05-04T10:37:04.939Z,1010.43
2023-05-04T10:38:04.803Z,1010.43
2023-05-04T10:39:04.764Z,1010.40
2023-05-04T10:40:07.311Z,1010.39
2023-05-04T10:41:04.765Z,1010.36
2023-05-04T10:42:04.778Z,1010.35
2023-05-04T10:43:04.886Z,1010.32
2023-05-04T10:44:04.745Z,1010.28
2023-05-04T10:45:04.900Z,1010.25
2023-05-04T10:46:04.747Z,1010.30
2023-05-04T10:47:05.817Z,1010.24
2023-05-04T10:48:04.806Z,1010.23
2023-05-04T10:49:04.757Z,1010.21
2023-05-04T10:50:04.866Z,1010.20
2023-05-04T10:51:04.700Z,1010.17
2023-05-04T10:52:04.702Z,1010.16
2023-05-04T10:53:04.612Z,1010.13
2023-05-04T10:54:04.596Z,1010.11
2023-05-04T10:55:04.700Z,1010.12
2023-05-04T10:56:04.596Z,1010.07
2023-05-04T10:57:04.531Z,1010.06
2023-05-04T10:58:04.534Z,1010.02
2023-05-04T10:59:04.671Z,1010.01
2023-05-04T11:00:04.615Z,1009.99
2023-05-04T11:49:16.304Z,1009.98
2023-05-04T11:49:21.898Z,1009.35
2023-05-04T11:50:21.901Z,1009.35
2023-05-04T11:51:21.944Z,1009.30
2023-05-04T11:52:21.878Z,1009.29
2023-05-04T12:24:44.748Z,1009.26
2023-05-04T12:24:50.231Z,1008.84
2023-05-04T14:41:11.650Z,1008.85
2023-05-04T14:41:17.124Z,1006.93
2023-05-04T16:57:30.227Z,1006.95
2023-05-04T16:57:35.694Z,1005.86
2023-05-04T19:13:49.857Z,1005.87
2023-05-04T19:13:55.415Z,1006.59
2023-05-04T19:14:55.419Z,1006.60
2023-05-04T21:31:06.830Z,1006.60
2023-05-04T21:31:13.262Z,1006.70
2023-05-04T21:32:12.333Z,1006.70
2023-05-04T21:33:12.314Z,1006.69
2023-05-04T21:34:12.354Z,1006.69
2023-05-04T21:35:12.316Z,1006.69
2023-05-04T21:36:12.323Z,1006.69
2023-05-04T21:37:12.256Z,1006.68
2023-05-04T23:55:03.836Z,1006.64
2023-05-04T23:56:04.635Z,1006.62
2023-05-04T23:57:04.476Z,1006.62
2023-05-04T23:58:04.466Z,1006.62
2023-05-04T23:59:04.424Z,1006.62
